West Chicago, IL

6:55 PM CDT on March 26, 2015 (GMT -0500)
Du Page | | Change Station
CLOSE
Current Station
Airport
Location: Chicago DuPage,
Elevation: 758 ft
Nearby Weather Stations

Elev 758 ft 41.90 °N, 88.25 °W | Updated 1 hour ago

Overcast
Overcast
38 °F
Feels Like 30 °F
N
12
Wind Variable Wind from NNW

Today
High -- | Low -- °F
--% Chance of Precip.
Yesterday
High -- | Low -- °F
Precip. -- in
6:46 AM 7:11 PM
Waxing Crescent, 47% visible
Pressure 30.02 in
Visibility 10.0 miles
Clouds Overcast 5000 ft
Windchill 30 °F
Dew Point 22 °F
Humidity 53%
Rainfall 0.00 in
Snow Depth Not available.
UV 0 out of 12
Pollen 5.50 out of 12
Air Quality Not available.
Flu Activity Not available.
METAR KDPA 262252Z 33010KT 10SM OVC050 03/M06 A3000 RMK AO2 SLP166 T00331056

More Conditions Fewer Conditions

Pressure 30.02 in
Visibility 10.0 miles
Clouds Overcast 5000 ft
Windchill 30 °F
Dew Point 22 °F
Humidity 53%
Rainfall 0.00 in
Snow Depth Not available.
UV 0 out of 12
Pollen 5.50 out of 12
Air Quality Not available.
Flu Activity Not available.
METAR KDPA 262252Z 33010KT 10SM OVC050 03/M06 A3000 RMK AO2 SLP166 T00331056

More Conditions Fewer Conditions

10-Day Weather Forecast

Almanac

Astronomy

Mar. 26, 2015 Rise Set
Actual Time
Civil Twilight
Nautical Twilight
Astronomical Twilight
Moon
Length of Visible Light
Length of Day
Tomorrow will be .
, % of the Moon is Illuminated

Today's Extremes

State Highs State Lows

Community

WunderPhotos

Upload Photos

1,808,643 photos uploaded!

WunderBlogs® & News

Nearby

Air Quality

  Air Quality AQ Index Pollutant
Not available.

Snow Depth

Station Depth Elevation

Earthquake Activity

City Distance Mag. Time & Date
Minimum magnitude displayed is 2.5.

Coastal Water Temperatures

Place Temperature

Stations

Nearby Weather Stations

Station Location Temp. Windchill Dew Point Humidity Wind Precip. Elev Updated Type